createdAt,value
2017-12-15T00:00:23.184Z,3.73
2017-12-15T00:02:32.308Z,4.50
2017-12-15T00:04:33.359Z,4.60
2017-12-15T00:06:34.368Z,5.27
2017-12-15T00:08:35.364Z,4.70
2017-12-15T00:10:36.385Z,5.23
2017-12-15T00:12:37.360Z,3.70
2017-12-15T00:14:38.401Z,4.23
2017-12-15T00:16:41.944Z,4.90
2017-12-15T00:18:43.037Z,4.23
2017-12-15T00:20:44.089Z,4.23
2017-12-15T00:22:45.066Z,3.70
2017-12-15T00:24:46.071Z,4.43
2017-12-15T00:26:47.040Z,3.70
2017-12-15T00:28:48.008Z,4.00
2017-12-15T00:30:49.001Z,4.30
2017-12-15T00:32:52.743Z,3.43
2017-12-15T00:34:53.938Z,3.97
2017-12-15T00:36:58.040Z,4.30
2017-12-15T00:38:59.916Z,4.00
2017-12-15T00:41:03.189Z,3.90
2017-12-15T00:43:04.314Z,3.80
2017-12-15T00:45:05.363Z,3.30
2017-12-15T00:47:08.016Z,4.23
2017-12-15T00:49:13.431Z,3.60
2017-12-15T00:51:14.538Z,3.57
2017-12-15T00:53:16.659Z,3.87
2017-12-15T00:55:17.794Z,3.80
2017-12-15T00:57:18.915Z,4.60
2017-12-15T00:59:19.924Z,5.30
2017-12-15T01:01:20.892Z,6.03
2017-12-15T01:03:21.888Z,4.70
2017-12-15T01:05:22.925Z,5.10
2017-12-15T01:07:23.922Z,5.17
2017-12-15T01:09:24.919Z,4.60
2017-12-15T01:11:25.930Z,5.93
2017-12-15T01:13:27.005Z,5.17
2017-12-15T01:15:28.163Z,5.33
2017-12-15T01:17:29.305Z,6.63
2017-12-15T01:19:30.298Z,4.97
2017-12-15T01:21:31.481Z,5.40
2017-12-15T01:23:32.982Z,6.30
2017-12-15T01:25:34.092Z,7.07
2017-12-15T01:27:35.913Z,5.77
2017-12-15T01:29:36.934Z,6.20
2017-12-15T01:31:37.988Z,6.80
2017-12-15T01:33:39.019Z,6.17
2017-12-15T01:35:40.051Z,6.70
2017-12-15T01:37:41.025Z,6.23
2017-12-15T01:39:42.042Z,6.40
2017-12-15T01:41:43.014Z,6.67
2017-12-15T01:43:43.992Z,5.37
2017-12-15T01:45:45.340Z,6.30
2017-12-15T01:47:46.391Z,6.40
2017-12-15T01:49:47.388Z,5.73
2017-12-15T01:51:48.419Z,5.23
2017-12-15T01:53:49.644Z,4.83
2017-12-15T01:55:50.629Z,4.97
2017-12-15T01:57:51.644Z,4.73
2017-12-15T01:59:52.682Z,3.83
2017-12-15T02:01:57.509Z,3.57
2017-12-15T02:03:58.610Z,3.00
2017-12-15T02:05:59.594Z,2.93
2017-12-15T02:08:00.592Z,2.60
2017-12-15T02:10:01.619Z,2.60
2017-12-15T02:12:02.642Z,2.90
2017-12-15T02:14:03.651Z,2.03
2017-12-15T02:16:05.147Z,2.43
2017-12-15T02:18:06.166Z,1.70
2017-12-15T02:20:07.893Z,3.03
2017-12-15T02:22:08.917Z,2.57
2017-12-15T02:24:09.934Z,2.37
2017-12-15T02:26:11.000Z,2.07
2017-12-15T02:28:12.055Z,1.87
2017-12-15T02:30:13.121Z,1.77
2017-12-15T02:32:14.112Z,1.80
2017-12-15T02:34:15.073Z,2.10
2017-12-15T02:38:34.779Z,1.87
2017-12-15T02:40:35.783Z,1.87
2017-12-15T02:42:36.765Z,1.90
2017-12-15T02:44:37.793Z,1.80
2017-12-15T02:46:38.838Z,2.00
2017-12-15T02:48:39.834Z,2.10
2017-12-15T02:50:53.408Z,2.00
2017-12-15T02:52:54.448Z,1.50
2017-12-15T02:54:55.489Z,2.07
2017-12-15T02:56:56.622Z,2.50
2017-12-15T02:58:57.633Z,2.07
2017-12-15T03:00:58.645Z,2.20
2017-12-15T03:02:59.656Z,2.73
2017-12-15T03:05:24.991Z,3.13
2017-12-15T03:07:26.813Z,3.40
2017-12-15T03:09:27.924Z,3.10
2017-12-15T03:11:32.495Z,3.13
2017-12-15T03:13:35.430Z,3.20
2017-12-15T03:15:36.773Z,3.47
2017-12-15T03:17:37.813Z,3.20
2017-12-15T03:19:38.833Z,3.20
2017-12-15T03:21:39.890Z,3.70
2017-12-15T03:23:42.320Z,3.40
2017-12-15T03:25:43.378Z,3.43
2017-12-15T03:27:44.414Z,4.20
2017-12-15T03:29:46.970Z,3.83
2017-12-15T03:31:48.068Z,3.97
2017-12-15T03:33:49.053Z,4.40
2017-12-15T03:35:50.068Z,4.60
2017-12-15T03:37:51.615Z,4.70
2017-12-15T03:39:53.369Z,4.93
2017-12-15T03:41:54.471Z,4.57
2017-12-15T03:43:55.496Z,4.80
2017-12-15T03:45:56.609Z,5.10
2017-12-15T03:47:57.598Z,5.00
2017-12-15T03:49:58.631Z,5.53
2017-12-15T03:51:59.656Z,5.50
2017-12-15T03:54:01.042Z,6.70
2017-12-15T03:56:02.084Z,5.57
2017-12-15T03:58:03.089Z,5.23
2017-12-15T04:00:04.077Z,5.87
2017-12-15T04:02:05.049Z,6.43
2017-12-15T04:04:06.828Z,5.93
2017-12-15T04:06:07.870Z,6.10
2017-12-15T04:08:08.908Z,6.40
2017-12-15T04:10:10.701Z,5.70
2017-12-15T04:12:12.732Z,5.93
2017-12-15T04:14:13.754Z,6.90
2017-12-15T04:16:14.758Z,6.30
2017-12-15T04:18:18.856Z,7.20
2017-12-15T04:20:19.991Z,6.53
2017-12-15T04:22:21.772Z,7.40
2017-12-15T04:24:22.911Z,7.47
2017-12-15T04:26:24.134Z,7.50
2017-12-15T04:28:25.190Z,8.37
2017-12-15T04:30:26.841Z,9.17
2017-12-15T04:32:27.872Z,8.60
2017-12-15T04:34:28.829Z,9.70
2017-12-15T04:36:29.843Z,9.70
2017-12-15T04:38:30.837Z,10.57
2017-12-15T04:44:49.663Z,11.60
2017-12-15T04:46:50.657Z,12.03
2017-12-15T04:48:51.741Z,11.43
2017-12-15T04:50:52.774Z,14.13
2017-12-15T04:52:53.797Z,12.70
2017-12-15T04:54:54.827Z,14.40
2017-12-15T04:56:55.912Z,13.00
2017-12-15T04:58:56.948Z,13.83
2017-12-15T05:00:57.946Z,15.27
2017-12-15T05:02:59.001Z,14.77
2017-12-15T05:05:01.946Z,15.57
2017-12-15T05:07:04.336Z,16.63
2017-12-15T05:09:05.391Z,17.33
2017-12-15T05:11:08.888Z,17.93
2017-12-15T05:13:09.931Z,16.57
2017-12-15T05:15:11.162Z,15.90
2017-12-15T05:17:12.824Z,18.70
2017-12-15T05:19:14.702Z,16.27
2017-12-15T05:21:15.696Z,17.57
2017-12-15T05:23:17.422Z,18.77
2017-12-15T05:25:18.631Z,18.80
2017-12-15T05:27:19.585Z,19.93
2017-12-15T05:29:20.664Z,18.43
2017-12-15T05:31:21.653Z,18.70
2017-12-15T05:33:22.657Z,20.63
2017-12-15T05:35:23.657Z,23.00
2017-12-15T05:37:24.717Z,21.00
2017-12-15T05:39:25.756Z,21.07
2017-12-15T05:41:26.728Z,22.77
2017-12-15T05:43:28.382Z,20.77
2017-12-15T05:45:29.618Z,23.47
2017-12-15T05:47:30.668Z,23.97
2017-12-15T05:49:31.626Z,22.27
2017-12-15T05:51:32.697Z,24.67
2017-12-15T05:53:40.510Z,26.13
2017-12-15T05:55:41.629Z,25.10
2017-12-15T05:57:42.596Z,24.90
2017-12-15T05:59:44.155Z,25.00
2017-12-15T06:01:45.123Z,27.27
2017-12-15T06:03:46.173Z,25.43
2017-12-15T06:05:47.322Z,23.33
2017-12-15T06:07:49.136Z,27.63
2017-12-15T06:09:50.177Z,24.00
2017-12-15T06:11:51.148Z,28.57
2017-12-15T06:13:52.156Z,26.37
2017-12-15T06:15:53.430Z,27.87
2017-12-15T06:17:54.389Z,26.73
2017-12-15T06:19:55.393Z,28.63
2017-12-15T06:21:57.116Z,27.97
2017-12-15T06:23:58.094Z,26.70
2017-12-15T06:25:59.826Z,29.30
2017-12-15T06:28:00.808Z,28.83
2017-12-15T06:30:01.821Z,30.53
2017-12-15T06:32:03.157Z,29.77
2017-12-15T06:34:04.170Z,29.90
2017-12-15T06:36:05.351Z,32.10
2017-12-15T06:38:06.425Z,34.00
2017-12-15T06:40:07.445Z,31.50
2017-12-15T06:42:08.505Z,33.30
2017-12-15T06:44:09.541Z,31.90
2017-12-15T06:46:10.568Z,32.60
2017-12-15T06:48:11.594Z,33.47
2017-12-15T06:50:13.349Z,31.30
2017-12-15T06:52:15.085Z,32.60
2017-12-15T06:54:16.040Z,34.50
2017-12-15T06:56:17.060Z,33.70
2017-12-15T06:58:18.043Z,33.90
2017-12-15T07:00:20.057Z,31.60
2017-12-15T07:02:21.001Z,31.30
2017-12-15T07:04:21.989Z,30.80
2017-12-15T07:06:22.976Z,30.77
2017-12-15T07:08:23.962Z,32.60
2017-12-15T07:10:24.924Z,31.70
2017-12-15T07:12:25.896Z,31.37
2017-12-15T07:14:27.660Z,29.90
2017-12-15T07:16:29.377Z,29.70
2017-12-15T07:18:30.332Z,31.17
2017-12-15T07:20:31.652Z,32.27
2017-12-15T07:22:32.664Z,29.67
2017-12-15T07:24:34.411Z,31.53
2017-12-15T07:26:35.373Z,27.63
2017-12-15T07:28:36.345Z,30.37
2017-12-15T07:30:37.432Z,29.60
2017-12-15T07:32:38.461Z,29.10
2017-12-15T07:34:39.509Z,31.77
2017-12-15T07:36:40.480Z,31.03
2017-12-15T07:38:41.441Z,31.30
2017-12-15T07:40:42.444Z,30.17
2017-12-15T07:42:43.431Z,31.40
2017-12-15T07:44:44.406Z,29.80
2017-12-15T07:46:45.360Z,29.93
2017-12-15T07:48:47.057Z,30.37
2017-12-15T07:50:48.088Z,30.50
2017-12-15T07:52:49.049Z,31.67
2017-12-15T07:54:50.032Z,30.60
2017-12-15T07:56:51.038Z,32.83
2017-12-15T07:58:52.001Z,28.07
2017-12-15T08:00:53.176Z,32.23
2017-12-15T08:02:54.133Z,33.63
2017-12-15T08:04:55.097Z,33.10
2017-12-15T08:06:56.791Z,31.37
2017-12-15T08:08:57.767Z,33.07
2017-12-15T08:10:58.749Z,32.57
2017-12-15T08:13:00.454Z,33.03
2017-12-15T08:15:01.430Z,34.27
2017-12-15T08:17:02.412Z,36.33
2017-12-15T08:19:04.117Z,34.90
2017-12-15T08:21:05.108Z,36.20
2017-12-15T08:23:06.807Z,33.83
2017-12-15T08:25:07.788Z,35.77
2017-12-15T08:27:08.755Z,38.30
2017-12-15T08:29:09.713Z,39.23
2017-12-15T08:31:11.401Z,37.27
2017-12-15T08:33:12.341Z,40.10
2017-12-15T08:35:13.297Z,38.60
2017-12-15T08:37:14.273Z,38.07
2017-12-15T08:39:15.244Z,39.30
2017-12-15T08:41:16.212Z,39.90
2017-12-15T08:43:17.934Z,39.23
2017-12-15T08:45:18.913Z,40.90
2017-12-15T08:47:20.802Z,39.60
2017-12-15T08:49:21.753Z,39.77
2017-12-15T08:51:22.726Z,41.93
2017-12-15T08:53:23.708Z,39.40
2017-12-15T08:55:24.652Z,41.07
2017-12-15T08:57:25.620Z,43.70
2017-12-15T08:59:26.678Z,43.77
2017-12-15T09:01:27.778Z,42.23
2017-12-15T09:03:28.769Z,44.80
2017-12-15T09:05:29.745Z,41.30
2017-12-15T09:07:30.743Z,42.40
2017-12-15T09:09:32.458Z,42.43
2017-12-15T09:11:33.461Z,43.53
2017-12-15T09:13:35.209Z,42.43
2017-12-15T09:15:36.962Z,40.83
2017-12-15T09:17:37.937Z,45.70
2017-12-15T09:19:39.652Z,42.07
2017-12-15T09:21:40.608Z,42.30
2017-12-15T09:23:41.577Z,37.40
2017-12-15T09:25:43.300Z,35.83
2017-12-15T09:27:44.285Z,36.03
2017-12-15T09:29:45.994Z,35.07
2017-12-15T09:31:47.029Z,32.20
2017-12-15T09:33:47.994Z,29.17
2017-12-15T09:35:48.970Z,33.77
2017-12-15T09:37:49.933Z,30.40
2017-12-15T09:39:50.892Z,26.00
2017-12-15T09:41:52.604Z,28.50
2017-12-15T09:43:55.502Z,26.83
2017-12-15T09:45:56.466Z,24.40
2017-12-15T09:47:57.452Z,25.27
2017-12-15T09:49:58.417Z,27.30
2017-12-15T09:51:59.440Z,26.23
2017-12-15T09:54:00.423Z,22.23
2017-12-15T09:56:01.401Z,23.87
2017-12-15T09:58:02.393Z,23.40
2017-12-15T10:00:03.370Z,23.90
2017-12-15T10:02:04.330Z,24.90
2017-12-15T10:04:05.289Z,23.30
2017-12-15T10:06:06.265Z,24.43
2017-12-15T10:08:07.240Z,24.10
2017-12-15T10:10:09.017Z,25.37
2017-12-15T10:12:10.088Z,24.67
2017-12-15T10:14:11.103Z,23.57
2017-12-15T10:16:12.065Z,23.90
2017-12-15T10:18:13.046Z,23.20
2017-12-15T10:20:14.024Z,22.37
2017-12-15T10:22:14.982Z,23.17
2017-12-15T10:24:15.996Z,25.30
2017-12-15T10:26:16.932Z,22.50
2017-12-15T10:28:18.652Z,24.00
2017-12-15T10:30:19.974Z,24.63
2017-12-15T10:32:21.011Z,27.23
2017-12-15T10:34:22.729Z,25.30
2017-12-15T10:36:23.709Z,28.27
2017-12-15T10:38:25.419Z,27.00
2017-12-15T10:40:26.402Z,28.20
2017-12-15T10:42:27.353Z,29.80
2017-12-15T10:44:28.565Z,29.67
2017-12-15T10:46:29.552Z,29.30
2017-12-15T10:48:31.275Z,25.07
2017-12-15T10:50:32.252Z,23.67
2017-12-15T10:52:33.221Z,26.43
2017-12-15T10:54:34.180Z,28.23
2017-12-15T10:56:35.893Z,24.50
2017-12-15T10:58:36.856Z,25.43
2017-12-15T11:00:37.808Z,26.03
2017-12-15T11:02:38.805Z,22.40
2017-12-15T11:04:40.571Z,26.33
2017-12-15T11:06:41.569Z,26.17
2017-12-15T11:08:42.554Z,22.53
2017-12-15T11:10:43.526Z,20.83
2017-12-15T11:12:44.575Z,22.27
2017-12-15T11:14:45.576Z,15.97
2017-12-15T11:16:46.583Z,17.63
2017-12-15T11:18:47.563Z,16.70
2017-12-15T11:20:48.574Z,17.77
2017-12-15T11:22:49.609Z,17.23
2017-12-15T11:24:50.601Z,16.60
2017-12-15T11:26:52.325Z,16.70
2017-12-15T11:28:53.622Z,18.03
2017-12-15T11:30:54.655Z,18.33
2017-12-15T11:32:56.007Z,18.00
2017-12-15T11:34:57.980Z,19.00
2017-12-15T11:36:59.144Z,17.53
2017-12-15T11:39:04.511Z,17.33
2017-12-15T11:41:15.964Z,18.13
2017-12-15T11:43:20.465Z,18.97
2017-12-15T11:45:22.714Z,19.40
2017-12-15T11:47:30.993Z,19.60
2017-12-15T11:51:45.816Z,16.63
2017-12-15T11:53:46.937Z,16.77
2017-12-15T11:55:48.337Z,15.80
2017-12-15T11:57:49.904Z,15.40
2017-12-15T11:59:50.925Z,17.10
2017-12-15T12:01:53.044Z,14.70
2017-12-15T12:03:54.122Z,16.03
2017-12-15T12:05:55.154Z,16.50
2017-12-15T12:07:56.245Z,15.87
2017-12-15T12:09:57.978Z,17.80
2017-12-15T12:11:59.012Z,18.00
2017-12-15T12:14:00.005Z,15.20
2017-12-15T12:16:01.977Z,14.60
2017-12-15T12:18:03.020Z,14.77
2017-12-15T12:20:04.057Z,14.37
2017-12-15T12:22:05.048Z,15.80
2017-12-15T12:24:06.022Z,14.50
2017-12-15T12:26:07.234Z,15.63
2017-12-15T12:28:08.277Z,16.20
2017-12-15T12:30:09.297Z,14.07
2017-12-15T12:32:10.292Z,13.40
2017-12-15T12:34:11.332Z,13.53
2017-12-15T12:36:12.348Z,13.70
2017-12-15T12:38:13.392Z,15.17
2017-12-15T12:40:15.272Z,16.50
2017-12-15T12:42:16.249Z,17.33
2017-12-15T12:44:17.239Z,15.93
2017-12-15T12:46:18.966Z,17.33
2017-12-15T12:48:19.965Z,17.40
2017-12-15T12:50:21.732Z,18.17
2017-12-15T12:52:22.736Z,17.67
2017-12-15T12:54:23.728Z,17.10
2017-12-15T12:56:24.709Z,14.43
2017-12-15T12:58:25.681Z,13.40
2017-12-15T13:00:26.848Z,12.10
2017-12-15T13:02:28.699Z,10.90
2017-12-15T13:04:29.836Z,12.53
2017-12-15T13:06:30.824Z,10.80
2017-12-15T13:08:32.544Z,11.03
2017-12-15T13:10:33.537Z,9.40
2017-12-15T13:12:35.268Z,10.30
2017-12-15T13:14:36.294Z,10.33
2017-12-15T13:16:37.539Z,10.50
2017-12-15T13:18:38.549Z,9.60
2017-12-15T13:20:39.736Z,11.90
2017-12-15T13:22:42.437Z,10.70
2017-12-15T13:24:44.134Z,11.90
2017-12-15T13:26:46.040Z,12.30
2017-12-15T13:28:47.021Z,11.73
2017-12-15T13:30:49.627Z,11.03
2017-12-15T13:32:50.622Z,11.50
2017-12-15T13:34:59.050Z,9.73
2017-12-15T13:37:00.083Z,11.30
2017-12-15T13:39:01.086Z,11.83
2017-12-15T13:41:02.068Z,11.70
2017-12-15T13:43:04.261Z,12.70
2017-12-15T13:45:05.313Z,11.73
2017-12-15T13:47:06.292Z,13.00
2017-12-15T13:49:07.276Z,12.53
2017-12-15T13:51:09.429Z,13.77
2017-12-15T13:53:10.509Z,13.30
2017-12-15T13:55:11.571Z,14.30
2017-12-15T13:57:12.694Z,13.97
2017-12-15T13:59:13.711Z,14.90
2017-12-15T14:01:15.397Z,15.13
2017-12-15T14:03:16.466Z,14.60
2017-12-15T14:05:17.448Z,13.57
2017-12-15T14:07:19.356Z,13.13
2017-12-15T14:09:20.721Z,14.30
2017-12-15T14:11:21.748Z,11.57
2017-12-15T14:13:23.465Z,11.23
2017-12-15T14:15:24.605Z,14.65
2017-12-15T14:17:25.868Z,15.07
2017-12-15T14:19:26.845Z,12.30
2017-12-15T14:21:27.788Z,11.90
2017-12-15T14:23:28.770Z,12.30
2017-12-15T14:25:30.496Z,13.47
2017-12-15T14:27:31.486Z,12.80
2017-12-15T14:29:32.457Z,13.97
2017-12-15T14:31:33.437Z,13.90
2017-12-15T14:33:34.441Z,12.30
2017-12-15T14:35:35.448Z,13.10
2017-12-15T14:37:36.441Z,12.37
2017-12-15T14:39:37.433Z,12.33
2017-12-15T14:41:38.500Z,12.70
2017-12-15T14:43:40.992Z,12.53
2017-12-15T14:45:42.054Z,47.60
2017-12-15T14:47:43.088Z,24.60
2017-12-15T14:49:44.110Z,13.67
2017-12-15T14:51:45.074Z,13.73
2017-12-15T14:53:46.081Z,11.93
2017-12-15T14:55:48.746Z,11.23
2017-12-15T14:57:49.737Z,13.23
2017-12-15T14:59:53.524Z,13.80
2017-12-15T15:01:54.713Z,12.90
2017-12-15T15:03:56.415Z,13.53
2017-12-15T15:05:57.399Z,13.90
2017-12-15T15:07:58.389Z,13.43
2017-12-15T15:09:59.423Z,12.97
2017-12-15T15:12:00.989Z,45.63
2017-12-15T15:14:02.164Z,28.17
2017-12-15T15:18:59.061Z,13.40
2017-12-15T15:21:00.048Z,14.57
2017-12-15T15:23:01.016Z,13.50
2017-12-15T15:25:04.683Z,15.67
2017-12-15T15:27:05.660Z,15.93
2017-12-15T15:29:06.638Z,15.67
2017-12-15T15:31:09.782Z,15.00
2017-12-15T15:33:10.913Z,15.47
2017-12-15T15:35:12.843Z,16.60
2017-12-15T15:37:13.890Z,16.10
2017-12-15T15:39:14.871Z,14.17
2017-12-15T15:41:15.880Z,16.50
2017-12-15T15:43:16.869Z,15.50
2017-12-15T15:45:17.851Z,15.97
2017-12-15T15:47:19.540Z,15.80
2017-12-15T15:49:20.496Z,15.77
2017-12-15T15:51:22.260Z,15.63
2017-12-15T15:53:23.237Z,14.80
2017-12-15T15:55:24.187Z,16.30
2017-12-15T15:57:25.378Z,16.90
2017-12-15T15:59:26.364Z,17.40
2017-12-15T16:01:27.344Z,17.00
2017-12-15T16:03:29.510Z,16.27
2017-12-15T16:05:30.676Z,17.83
2017-12-15T16:07:32.456Z,17.17
2017-12-15T16:09:35.373Z,16.40
2017-12-15T16:11:36.364Z,16.83
2017-12-15T16:13:37.349Z,17.03
2017-12-15T16:15:40.404Z,15.77
2017-12-15T16:17:41.681Z,18.63
2017-12-15T16:19:42.861Z,15.70
2017-12-15T16:21:43.852Z,15.33
2017-12-15T16:23:44.870Z,14.57
2017-12-15T16:25:45.867Z,16.17
2017-12-15T16:27:46.872Z,15.00
2017-12-15T16:29:47.872Z,16.20
2017-12-15T16:31:48.918Z,15.27
2017-12-15T16:33:50.880Z,16.93
2017-12-15T16:35:51.991Z,14.60
2017-12-15T16:38:01.853Z,15.57
2017-12-15T16:40:03.728Z,15.63
2017-12-15T16:42:06.928Z,15.77
2017-12-15T16:44:08.724Z,15.37
2017-12-15T16:46:09.975Z,15.83
2017-12-15T16:48:11.808Z,16.20
2017-12-15T16:50:13.332Z,14.37
2017-12-15T16:52:14.582Z,15.50
2017-12-15T16:54:15.574Z,17.77
2017-12-15T16:56:16.584Z,16.90
2017-12-15T16:58:17.671Z,15.43
2017-12-15T17:00:18.664Z,16.27
2017-12-15T17:02:19.908Z,15.50
2017-12-15T17:04:21.157Z,16.80
2017-12-15T17:06:22.213Z,16.70
2017-12-15T17:08:23.234Z,15.70
2017-12-15T17:10:34.482Z,17.20
2017-12-15T17:12:36.268Z,14.93
2017-12-15T17:14:37.300Z,15.20
2017-12-15T17:16:38.324Z,14.57
2017-12-15T17:18:40.503Z,16.23
2017-12-15T17:20:41.526Z,15.17
2017-12-15T17:22:43.284Z,17.30
2017-12-15T17:24:45.007Z,16.13
2017-12-15T17:26:45.993Z,15.53
2017-12-15T17:28:47.732Z,16.40
2017-12-15T17:30:49.071Z,16.00
2017-12-15T17:32:50.186Z,15.67
2017-12-15T17:34:51.168Z,16.90
2017-12-15T17:36:52.137Z,16.07
2017-12-15T17:38:53.172Z,16.30
2017-12-15T17:40:55.675Z,15.20
2017-12-15T17:43:03.586Z,15.80
2017-12-15T17:45:05.215Z,14.53
2017-12-15T17:47:07.440Z,17.30
2017-12-15T17:49:08.557Z,16.23
2017-12-15T17:51:09.613Z,16.10
2017-12-15T17:53:10.637Z,17.13
2017-12-15T17:55:11.772Z,16.20
2017-12-15T17:57:12.748Z,15.17
2017-12-15T17:59:13.761Z,16.37
2017-12-15T18:01:14.748Z,16.20
2017-12-15T18:03:15.741Z,14.10
2017-12-15T18:05:16.773Z,15.47
2017-12-15T18:07:18.802Z,17.17
2017-12-15T18:09:19.822Z,17.00
2017-12-15T18:11:24.093Z,17.23
2017-12-15T18:13:25.116Z,17.37
2017-12-15T18:15:26.157Z,16.70
2017-12-15T18:17:27.201Z,17.43
2017-12-15T18:19:28.265Z,17.90
2017-12-15T18:21:30.033Z,17.80
2017-12-15T18:23:31.020Z,16.17
2017-12-15T18:25:32.007Z,17.80
2017-12-15T18:27:33.790Z,15.73
2017-12-15T18:29:34.766Z,17.27
2017-12-15T18:31:35.760Z,17.27
2017-12-15T18:33:37.550Z,17.77
2017-12-15T18:35:38.568Z,17.30
2017-12-15T18:37:40.339Z,17.50
2017-12-15T18:39:41.337Z,17.10
2017-12-15T18:41:42.433Z,17.97
2017-12-15T18:43:43.422Z,17.23
2017-12-15T18:45:44.483Z,16.67
2017-12-15T18:47:45.478Z,18.30
2017-12-15T18:49:47.220Z,17.23
2017-12-15T18:51:48.253Z,17.07
2017-12-15T18:53:49.277Z,19.00
2017-12-15T18:55:50.313Z,16.73
2017-12-15T18:57:51.320Z,17.23
2017-12-15T18:59:52.304Z,16.50
2017-12-15T19:01:53.455Z,18.07
2017-12-15T19:03:54.459Z,17.50
2017-12-15T19:05:55.508Z,17.07
2017-12-15T19:07:56.524Z,16.53
2017-12-15T19:09:57.533Z,17.70
2017-12-15T19:11:59.326Z,20.10
2017-12-15T19:14:00.365Z,19.23
2017-12-15T19:16:01.466Z,21.57
2017-12-15T19:18:02.544Z,17.40
2017-12-15T19:20:04.300Z,18.23
2017-12-15T19:22:06.045Z,17.73
2017-12-15T19:24:07.309Z,19.33
2017-12-15T19:26:08.409Z,19.43
2017-12-15T19:28:09.464Z,19.10
2017-12-15T19:30:10.462Z,19.20
2017-12-15T19:32:12.206Z,20.10
2017-12-15T19:34:13.198Z,20.53
2017-12-15T19:36:14.202Z,19.63
2017-12-15T19:38:15.223Z,17.80
2017-12-15T19:40:16.260Z,20.17
2017-12-15T19:42:17.260Z,17.03
2017-12-15T19:44:19.012Z,14.30
2017-12-15T19:46:20.884Z,15.87
2017-12-15T19:48:22.725Z,18.30
2017-12-15T19:50:23.760Z,17.70
2017-12-15T19:52:24.798Z,17.27
2017-12-15T19:54:25.981Z,18.33
2017-12-15T19:56:27.007Z,18.50
2017-12-15T19:58:28.323Z,18.57
2017-12-15T20:00:29.353Z,17.80
2017-12-15T20:02:31.091Z,18.73
2017-12-15T20:04:32.132Z,19.20
2017-12-15T20:06:33.129Z,20.17
2017-12-15T20:08:34.140Z,19.67
2017-12-15T20:10:35.148Z,18.03
2017-12-15T20:12:36.236Z,18.83
2017-12-15T20:14:37.242Z,17.73
2017-12-15T20:16:38.243Z,20.20
2017-12-15T20:18:40.012Z,19.73
2017-12-15T20:20:41.864Z,18.60
2017-12-15T20:22:42.909Z,19.77
2017-12-15T20:24:43.945Z,18.50
2017-12-15T20:26:45.791Z,18.80
2017-12-15T20:28:46.940Z,18.70
2017-12-15T20:30:47.980Z,18.80
2017-12-15T20:32:48.984Z,17.20
2017-12-15T20:34:49.961Z,18.87
2017-12-15T20:36:51.069Z,18.13
2017-12-15T20:38:52.098Z,18.20
2017-12-15T20:40:53.139Z,19.93
2017-12-15T20:42:54.133Z,20.97
2017-12-15T20:44:56.011Z,21.43
2017-12-15T20:46:57.098Z,20.40
2017-12-15T20:48:58.120Z,19.37
2017-12-15T20:50:59.142Z,20.07
2017-12-15T20:53:00.171Z,19.83
2017-12-15T20:55:01.182Z,19.60
2017-12-15T20:57:02.212Z,20.97
2017-12-15T20:59:03.256Z,21.00
2017-12-15T21:01:04.306Z,22.77
2017-12-15T21:03:05.387Z,20.90
2017-12-15T21:05:06.411Z,19.13
2017-12-15T21:07:07.477Z,20.13
2017-12-15T21:09:08.568Z,19.70
2017-12-15T21:11:09.618Z,20.67
2017-12-15T21:13:10.632Z,19.43
2017-12-15T21:15:11.648Z,19.77
2017-12-15T21:17:12.653Z,18.67
2017-12-15T21:19:13.642Z,18.57
2017-12-15T21:21:14.639Z,19.57
2017-12-15T21:23:16.382Z,18.83
2017-12-15T21:25:17.397Z,18.50
2017-12-15T21:27:18.480Z,18.67
2017-12-15T21:29:19.575Z,18.30
2017-12-15T21:31:20.604Z,19.07
2017-12-15T21:33:21.570Z,20.30
2017-12-15T21:35:22.641Z,20.40
2017-12-15T21:37:23.661Z,18.73
2017-12-15T21:39:24.676Z,20.10
2017-12-15T21:41:26.478Z,19.50
2017-12-15T21:43:27.488Z,20.13
2017-12-15T21:45:28.525Z,19.43
2017-12-15T21:47:30.268Z,17.90
2017-12-15T21:49:31.294Z,17.60
2017-12-15T21:51:32.265Z,17.63
2017-12-15T21:53:33.228Z,17.47
2017-12-15T21:56:55.235Z,15.90
2017-12-15T21:58:56.278Z,16.50
2017-12-15T22:00:57.303Z,17.30
2017-12-15T22:02:58.324Z,18.00
2017-12-15T22:05:00.061Z,19.33
2017-12-15T22:07:01.098Z,19.80
2017-12-15T22:09:02.117Z,21.13
2017-12-15T22:11:03.117Z,21.40
2017-12-15T22:13:04.138Z,20.73
2017-12-15T22:15:05.139Z,20.93
2017-12-15T22:17:06.860Z,21.93
2017-12-15T22:19:07.857Z,22.17
2017-12-15T22:21:08.911Z,19.47
2017-12-15T22:23:09.925Z,20.10
2017-12-15T22:25:10.907Z,18.57
2017-12-15T22:27:11.905Z,18.50
2017-12-15T22:29:12.919Z,20.77
2017-12-15T22:31:13.981Z,22.70
2017-12-15T22:33:15.010Z,22.53
2017-12-15T22:35:16.026Z,20.60
2017-12-15T22:37:17.019Z,20.67
2017-12-15T22:39:18.056Z,21.50
2017-12-15T22:41:19.009Z,21.20
2017-12-15T22:43:20.083Z,23.73
2017-12-15T22:45:21.101Z,21.90
2017-12-15T22:47:22.107Z,22.50
2017-12-15T22:49:23.135Z,20.13
2017-12-15T22:51:24.220Z,21.57
2017-12-15T22:53:25.254Z,21.63
2017-12-15T22:55:26.978Z,22.47
2017-12-15T22:57:28.071Z,22.70
2017-12-15T22:59:29.306Z,23.50
2017-12-15T23:01:31.075Z,20.40
2017-12-15T23:03:32.888Z,22.40
2017-12-15T23:05:33.899Z,23.63
2017-12-15T23:07:35.547Z,20.97
2017-12-15T23:09:36.546Z,22.37
2017-12-15T23:11:37.521Z,21.50
2017-12-15T23:13:38.464Z,21.63
2017-12-15T23:15:39.435Z,22.93
2017-12-15T23:17:41.164Z,21.23
2017-12-15T23:19:42.146Z,23.20
2017-12-15T23:21:43.879Z,21.77
2017-12-15T23:23:44.903Z,21.70
2017-12-15T23:25:45.920Z,21.53
2017-12-15T23:27:46.902Z,22.30
2017-12-15T23:29:48.694Z,23.10
2017-12-15T23:31:49.680Z,21.07
2017-12-15T23:33:50.672Z,23.77
2017-12-15T23:35:51.713Z,21.67
2017-12-15T23:37:52.723Z,23.83
2017-12-15T23:39:53.773Z,21.47
2017-12-15T23:41:54.799Z,24.50
2017-12-15T23:43:56.536Z,23.83
2017-12-15T23:45:57.541Z,24.47
2017-12-15T23:47:58.577Z,24.20
2017-12-15T23:49:59.626Z,23.70
2017-12-15T23:52:00.821Z,25.63
2017-12-15T23:54:01.837Z,26.70
2017-12-15T23:56:15.087Z,26.80
2017-12-15T23:58:16.086Z,26.50
